createdAt,value
2022-08-08T00:03:40.453Z,5
2022-08-08T00:08:40.456Z,6
2022-08-08T00:14:12.250Z,6
2022-08-08T00:18:40.504Z,6
2022-08-08T00:23:42.226Z,6
2022-08-08T00:28:40.503Z,7
2022-08-08T00:34:17.785Z,7
2022-08-08T00:38:44.233Z,8
2022-08-08T00:43:41.574Z,8
2022-08-08T00:48:40.524Z,7
2022-08-08T00:53:43.467Z,7
2022-08-08T00:58:43.620Z,7
2022-08-08T01:04:00.565Z,8
2022-08-08T01:08:40.536Z,8
2022-08-08T01:13:44.108Z,7
2022-08-08T01:18:50.977Z,8
2022-08-08T01:24:03.613Z,9
2022-08-08T01:28:40.591Z,8
2022-08-08T01:33:43.362Z,8
2022-08-08T01:38:41.407Z,8
2022-08-08T01:43:40.633Z,7
2022-08-08T01:48:40.627Z,7
2022-08-08T01:55:18.656Z,7
2022-08-08T01:58:46.628Z,6
2022-08-08T02:03:56.374Z,7
2022-08-08T02:08:40.841Z,7
2022-08-08T02:13:52.509Z,6
2022-08-08T02:18:40.734Z,7
2022-08-08T02:23:40.898Z,7
2022-08-08T02:28:41.438Z,7
2022-08-08T02:33:41.755Z,6
2022-08-08T02:38:40.902Z,7
2022-08-08T02:44:36.366Z,8
2022-08-08T02:48:40.995Z,9
2022-08-08T02:53:40.780Z,10
2022-08-08T02:58:40.813Z,7
2022-08-08T03:03:46.533Z,8
2022-08-08T03:08:40.903Z,6
2022-08-08T03:15:55.112Z,7
2022-08-08T03:18:40.815Z,6
2022-08-08T03:23:56.733Z,7
2022-08-08T03:28:40.885Z,7
2022-08-08T03:33:54.127Z,8
2022-08-08T03:38:53.349Z,8
2022-08-08T03:43:40.863Z,7
2022-08-08T03:49:09.253Z,7
2022-08-08T03:53:42.335Z,9
2022-08-08T03:58:40.914Z,8
2022-08-08T04:03:56.928Z,9
2022-08-08T04:08:40.897Z,9
2022-08-08T04:14:02.988Z,8
2022-08-08T04:18:42.256Z,9
2022-08-08T04:24:04.862Z,8
2022-08-08T04:28:41.652Z,8
2022-08-08T04:33:42.114Z,8
2022-08-08T04:38:42.221Z,8
2022-08-08T04:43:45.125Z,7
2022-08-08T04:48:40.962Z,7
2022-08-08T04:53:53.208Z,10
2022-08-08T04:58:41.033Z,9
2022-08-08T05:04:08.775Z,8
2022-08-08T05:08:41.322Z,8
2022-08-08T05:13:54.746Z,9
2022-08-08T05:18:41.017Z,9
2022-08-08T05:23:45.869Z,10
2022-08-08T05:28:48.510Z,7
2022-08-08T05:33:44.178Z,6
2022-08-08T05:38:41.180Z,6
2022-08-08T05:44:02.651Z,7
2022-08-08T05:48:41.670Z,7
2022-08-08T05:53:55.006Z,7
2022-08-08T05:58:53.554Z,9
2022-08-08T06:03:42.021Z,9
2022-08-08T06:08:41.144Z,7
2022-08-08T06:13:47.153Z,7
2022-08-08T06:18:41.260Z,6
2022-08-08T06:23:49.184Z,6
2022-08-08T06:28:41.329Z,7
2022-08-08T06:34:25.205Z,7
2022-08-08T06:38:42.541Z,6
2022-08-08T06:43:41.237Z,8
2022-08-08T06:48:42.371Z,6
2022-08-08T06:53:50.614Z,12
2022-08-08T06:58:41.226Z,8
2022-08-08T07:03:51.836Z,7
2022-08-08T07:08:41.276Z,8
2022-08-08T07:14:00.136Z,6
2022-08-08T07:18:41.527Z,7
2022-08-08T07:23:57.821Z,6
2022-08-08T07:28:41.309Z,7
2022-08-08T07:33:53.240Z,7
2022-08-08T07:38:41.318Z,14
2022-08-08T07:43:41.334Z,9
2022-08-08T07:48:42.059Z,7
2022-08-08T07:53:52.648Z,6
2022-08-08T07:58:41.623Z,6
2022-08-08T08:03:43.619Z,9
2022-08-08T08:08:41.934Z,6
2022-08-08T08:13:43.240Z,6
2022-08-08T08:18:43.051Z,7
2022-08-08T08:23:41.917Z,5
2022-08-08T08:28:41.411Z,6
2022-08-08T08:33:41.476Z,5
2022-08-08T08:38:49.169Z,4
2022-08-08T08:43:42.440Z,6
2022-08-08T08:48:41.964Z,4
2022-08-08T08:53:55.744Z,4
2022-08-08T08:58:41.975Z,4
2022-08-08T09:03:46.210Z,5
2022-08-08T09:08:41.505Z,4
2022-08-08T09:13:41.476Z,6
2022-08-08T09:18:41.505Z,4
2022-08-08T09:23:41.758Z,4
2022-08-08T09:28:41.538Z,4
2022-08-08T09:33:55.110Z,3
2022-08-08T09:38:53.535Z,3
2022-08-08T09:44:05.854Z,5
2022-08-08T09:48:42.765Z,8
2022-08-08T09:53:54.394Z,4
2022-08-08T09:58:44.771Z,4
2022-08-08T10:03:41.575Z,3
2022-08-08T10:08:42.143Z,4
2022-08-08T10:13:42.109Z,4
2022-08-08T10:18:41.825Z,3
2022-08-08T10:23:43.930Z,4
2022-08-08T10:28:41.667Z,4
2022-08-08T10:34:17.999Z,4
2022-08-08T10:38:41.652Z,4
2022-08-08T10:43:43.001Z,4
2022-08-08T10:48:56.348Z,3
2022-08-08T10:53:57.048Z,4
2022-08-08T10:58:47.503Z,3
2022-08-08T11:03:52.965Z,3
2022-08-08T11:08:45.192Z,4
2022-08-08T11:13:51.935Z,4
2022-08-08T11:18:41.817Z,4
2022-08-08T11:23:41.758Z,3
2022-08-08T11:28:41.751Z,4
2022-08-08T11:33:52.257Z,4
2022-08-08T11:38:43.914Z,4
2022-08-08T11:43:42.266Z,4
2022-08-08T11:48:41.764Z,7
2022-08-08T11:53:42.670Z,4
2022-08-08T11:58:41.791Z,5
2022-08-08T12:03:41.882Z,19
2022-08-08T12:08:41.818Z,5
2022-08-08T12:14:02.204Z,3
2022-08-08T12:18:41.859Z,3
2022-08-08T12:23:44.079Z,4
2022-08-08T12:28:45.301Z,3
2022-08-08T12:34:01.507Z,5
2022-08-08T12:38:41.946Z,3
2022-08-08T12:43:43.920Z,5
2022-08-08T12:48:47.516Z,3
2022-08-08T12:53:43.747Z,3
2022-08-08T12:58:42.072Z,3
2022-08-08T13:03:41.920Z,3
2022-08-08T13:08:42.397Z,3
2022-08-08T13:13:42.034Z,3
2022-08-08T13:18:48.923Z,11
2022-08-08T13:23:46.380Z,4
2022-08-08T13:28:42.157Z,3
2022-08-08T13:33:43.453Z,4
2022-08-08T13:38:42.031Z,4
2022-08-08T13:43:42.027Z,5
2022-08-08T13:48:42.023Z,3
2022-08-08T13:53:53.108Z,3
2022-08-08T13:58:42.026Z,3
2022-08-08T14:03:53.988Z,3
2022-08-08T14:08:42.126Z,3
2022-08-08T14:13:59.334Z,4
2022-08-08T14:18:51.788Z,4
2022-08-08T14:24:04.985Z,3
2022-08-08T14:28:42.121Z,6
2022-08-08T14:33:42.599Z,3
2022-08-08T14:38:52.279Z,5
2022-08-08T14:44:02.946Z,4
2022-08-08T14:48:42.260Z,3
2022-08-08T14:53:54.736Z,3
2022-08-08T14:58:42.184Z,4
2022-08-08T15:03:44.985Z,3
2022-08-08T15:08:53.146Z,3
2022-08-08T15:14:00.606Z,4
2022-08-08T15:18:44.146Z,3
2022-08-08T15:23:42.305Z,3
2022-08-08T15:28:42.275Z,3
2022-08-08T15:33:58.729Z,3
2022-08-08T15:38:49.710Z,4
2022-08-08T15:43:42.268Z,3
2022-08-08T15:48:42.429Z,4
2022-08-08T15:53:49.399Z,3
2022-08-08T15:58:45.864Z,4
2022-08-08T16:03:42.336Z,4
2022-08-08T16:09:02.583Z,3
2022-08-08T16:13:43.906Z,3
2022-08-08T16:18:42.413Z,3
2022-08-08T16:23:42.342Z,4
2022-08-08T16:28:42.328Z,3
2022-08-08T16:33:42.460Z,3
2022-08-08T16:38:44.908Z,4
2022-08-08T16:43:49.326Z,3
2022-08-08T16:48:42.368Z,4
2022-08-08T16:54:59.182Z,3
2022-08-08T16:58:42.403Z,3
2022-08-08T17:03:59.684Z,3
2022-08-08T17:08:42.402Z,3
2022-08-08T17:13:50.473Z,3
2022-08-08T17:18:42.949Z,3
2022-08-08T17:23:58.664Z,3
2022-08-08T17:28:42.554Z,3
2022-08-08T17:34:38.083Z,3
2022-08-08T17:38:42.486Z,3
2022-08-08T17:44:00.288Z,3
2022-08-08T17:48:42.485Z,3
2022-08-08T17:53:42.802Z,3
2022-08-08T17:58:42.864Z,3
2022-08-08T18:03:42.554Z,3
2022-08-08T18:08:43.506Z,3
2022-08-08T18:13:42.703Z,3
2022-08-08T18:18:45.327Z,4
2022-08-08T18:23:42.573Z,3
2022-08-08T18:28:54.499Z,3
2022-08-08T18:34:10.967Z,4
2022-08-08T18:38:42.584Z,3
2022-08-08T18:43:43.481Z,4
2022-08-08T18:48:42.662Z,4
2022-08-08T18:53:58.137Z,5
2022-08-08T18:58:42.642Z,3
2022-08-08T19:04:05.238Z,4
2022-08-08T19:08:42.683Z,3
2022-08-08T19:13:54.024Z,3
2022-08-08T19:18:48.712Z,4
2022-08-08T19:23:42.697Z,4
2022-08-08T19:28:42.809Z,3
2022-08-08T19:33:52.466Z,4
2022-08-08T19:38:42.750Z,4
2022-08-08T19:43:59.636Z,4
2022-08-08T19:48:42.791Z,4
2022-08-08T19:53:52.511Z,4
2022-08-08T19:58:42.808Z,4
2022-08-08T20:04:00.687Z,3
2022-08-08T20:08:46.009Z,4
2022-08-08T20:14:13.552Z,3
2022-08-08T20:18:52.315Z,4
2022-08-08T20:23:42.952Z,4
2022-08-08T20:28:42.801Z,4
2022-08-08T20:34:28.463Z,4
2022-08-08T20:38:42.878Z,4
2022-08-08T20:43:43.256Z,3
2022-08-08T20:48:42.908Z,4
2022-08-08T20:53:57.753Z,4
2022-08-08T20:58:46.925Z,4
2022-08-08T21:03:55.153Z,3
2022-08-08T21:08:48.552Z,4
2022-08-08T21:13:43.280Z,4
2022-08-08T21:18:42.938Z,4
2022-08-08T21:23:58.758Z,4
2022-08-08T21:28:46.270Z,4
2022-08-08T21:33:43.579Z,4
2022-08-08T21:38:43.435Z,4
2022-08-08T21:43:42.990Z,4
2022-08-08T21:48:44.482Z,4
2022-08-08T21:54:19.180Z,4
2022-08-08T21:58:42.970Z,4
2022-08-08T22:03:43.101Z,4
2022-08-08T22:08:42.992Z,4
2022-08-08T22:13:47.722Z,5
2022-08-08T22:18:43.229Z,4
2022-08-08T22:23:49.634Z,5
2022-08-08T22:29:04.096Z,4
2022-08-08T22:34:11.475Z,5
2022-08-08T22:38:47.905Z,4
2022-08-08T22:44:01.775Z,4
2022-08-08T22:48:43.718Z,6
2022-08-08T22:54:28.750Z,5
2022-08-08T22:58:43.135Z,5
2022-08-08T23:03:54.136Z,5
2022-08-08T23:08:44.170Z,5
2022-08-08T23:13:51.752Z,5
2022-08-08T23:18:43.150Z,5
2022-08-08T23:23:48.592Z,5
2022-08-08T23:28:43.340Z,5
2022-08-08T23:34:15.663Z,5
2022-08-08T23:38:44.107Z,5
2022-08-08T23:43:45.456Z,6
2022-08-08T23:48:58.149Z,6
2022-08-08T23:53:56.277Z,5
2022-08-08T23:58:43.211Z,5
